Time;durP1;ratioP1;P1;durP2;ratioP2;P2;SDS_P1;SDS_P2;PMS_P1;PMS_P2;Temp;Humidity;BMP_temperature;BMP_pressure;BME280_temperature;BME280_humidity;BME280_pressure;Samples;Min_cycle;Max_cycle;Signal;HPM_P1;HPM_P2
2021/06/25 00:01:47;;;;;;;2.07;1.70;;;;;;;;;;5017783;28;20435;-67
2021/06/25 00:04:13;;;;;;;3.30;2.10;;;;;;;;;;5018756;28;20469;-67
2021/06/25 00:06:39;;;;;;;2.50;1.90;;;;;;;;;;5018102;28;20833;-67
2021/06/25 00:09:05;;;;;;;2.20;1.70;;;;;;;;;;5018455;28;20466;-67
2021/06/25 00:11:31;;;;;;;2.10;1.80;;;;;;;;;;5013368;28;20479;-67
2021/06/25 00:13:57;;;;;;;2.70;1.70;;;;;;;;;;4999057;28;20404;-67
2021/06/25 00:16:23;;;;;;;3.50;1.87;;;;;;;;;;5016692;28;20431;-67
2021/06/25 00:18:50;;;;;;;2.73;1.83;;;;;;;;;;5017354;28;20475;-68
2021/06/25 00:21:16;;;;;;;2.47;2.03;;;;;;;;;;5016007;28;20424;-67
2021/06/25 00:23:42;;;;;;;2.40;1.60;;;;;;;;;;5015687;28;20412;-68
2021/06/25 00:26:08;;;;;;;2.63;1.90;;;;;;;;;;5016300;28;20400;-67
2021/06/25 00:28:34;;;;;;;1.93;1.57;;;;;;;;;;5017235;28;20465;-67
2021/06/25 00:31:00;;;;;;;6.37;1.77;;;;;;;;;;5016803;28;20396;-67
2021/06/25 00:33:26;;;;;;;2.80;1.63;;;;;;;;;;5016759;28;20428;-67
2021/06/25 00:35:52;;;;;;;2.70;1.83;;;;;;;;;;5016201;28;20458;-67
2021/06/25 00:38:19;;;;;;;3.30;2.20;;;;;;;;;;5016233;28;20455;-66
2021/06/25 00:40:45;;;;;;;2.90;1.80;;;;;;;;;;5017262;28;20741;-67
2021/06/25 00:43:10;;;;;;;3.33;2.20;;;;;;;;;;5016036;28;20908;-67
2021/06/25 00:45:37;;;;;;;2.33;1.60;;;;;;;;;;5016533;28;20422;-67
2021/06/25 00:48:03;;;;;;;2.20;1.60;;;;;;;;;;5015644;28;20510;-67
2021/06/25 00:50:30;;;;;;;2.37;1.30;;;;;;;;;;5016731;28;20486;-67
2021/06/25 00:52:57;;;;;;;2.10;1.60;;;;;;;;;;5014348;28;20806;-67
2021/06/25 00:55:24;;;;;;;2.20;1.67;;;;;;;;;;5016581;28;20481;-67
2021/06/25 00:57:50;;;;;;;2.33;1.80;;;;;;;;;;5016611;28;20423;-67
2021/06/25 01:00:16;;;;;;;2.60;1.40;;;;;;;;;;5016506;28;20999;-67
2021/06/25 01:02:43;;;;;;;1.83;1.30;;;;;;;;;;5015592;28;20427;-66
2021/06/25 01:05:09;;;;;;;4.17;1.60;;;;;;;;;;5016031;28;20423;-67
2021/06/25 01:07:36;;;;;;;3.07;1.70;;;;;;;;;;5013400;28;20447;-68
2021/06/25 01:10:03;;;;;;;1.93;1.13;;;;;;;;;;5018269;28;20564;-67
2021/06/25 01:12:30;;;;;;;1.80;1.27;;;;;;;;;;5017609;28;20434;-67
2021/06/25 01:14:56;;;;;;;2.13;1.43;;;;;;;;;;5019358;28;20411;-67
2021/06/25 01:17:28;;;;;;;1.90;1.27;;;;;;;;;;5016458;28;20435;-67
2021/06/25 01:19:54;;;;;;;4.80;2.00;;;;;;;;;;5016577;28;20826;-68
2021/06/25 01:22:40;;;;;;;2.70;1.30;;;;;;;;;;5011488;28;20944;-68
2021/06/25 01:25:15;;;;;;;3.10;1.37;;;;;;;;;;5011881;28;20399;-67
2021/06/25 01:27:42;;;;;;;3.27;1.40;;;;;;;;;;5002532;28;20424;-67
2021/06/25 01:30:12;;;;;;;2.10;1.60;;;;;;;;;;4997845;28;20459;-67
2021/06/25 01:32:38;;;;;;;1.93;1.37;;;;;;;;;;5015627;28;20489;-66
2021/06/25 01:35:05;;;;;;;4.27;1.40;;;;;;;;;;5017354;28;20519;-66
2021/06/25 01:37:32;;;;;;;1.70;1.00;;;;;;;;;;5016454;28;20431;-66
2021/06/25 01:39:58;;;;;;;2.07;1.40;;;;;;;;;;5017090;28;20501;-67
2021/06/25 01:42:24;;;;;;;4.30;1.10;;;;;;;;;;5016193;28;20427;-67
2021/06/25 01:44:51;;;;;;;1.80;1.10;;;;;;;;;;5013600;28;20478;-67
2021/06/25 01:47:17;;;;;;;3.37;1.30;;;;;;;;;;5014787;28;20420;-67
2021/06/25 01:49:43;;;;;;;2.40;1.30;;;;;;;;;;5016561;28;20807;-67
2021/06/25 01:52:16;;;;;;;3.00;1.23;;;;;;;;;;5008111;28;20437;-67
2021/06/25 01:54:42;;;;;;;1.87;1.20;;;;;;;;;;4997405;28;20468;-67
2021/06/25 01:57:08;;;;;;;2.13;1.20;;;;;;;;;;5007071;28;20434;-66
2021/06/25 01:59:35;;;;;;;1.73;1.03;;;;;;;;;;5014506;28;20459;-67
2021/06/25 02:02:01;;;;;;;1.60;1.10;;;;;;;;;;5015172;28;20431;-66
2021/06/25 02:04:27;;;;;;;1.87;1.13;;;;;;;;;;5016679;28;20400;-67
2021/06/25 02:06:53;;;;;;;2.10;1.57;;;;;;;;;;5015226;28;20450;-67
2021/06/25 02:09:19;;;;;;;2.60;1.10;;;;;;;;;;5015778;28;20452;-66
2021/06/25 02:11:45;;;;;;;1.80;1.30;;;;;;;;;;5015793;28;20836;-67
2021/06/25 02:14:11;;;;;;;1.63;1.30;;;;;;;;;;5016785;28;20495;-66
2021/06/25 02:16:37;;;;;;;1.70;1.20;;;;;;;;;;5016698;28;20877;-67
2021/06/25 02:19:03;;;;;;;1.63;1.10;;;;;;;;;;5017351;28;20471;-66
2021/06/25 02:21:29;;;;;;;2.03;0.93;;;;;;;;;;5018591;28;20492;-66
2021/06/25 02:23:56;;;;;;;3.50;1.33;;;;;;;;;;5018960;28;20404;-66
2021/06/25 02:26:22;;;;;;;1.67;1.10;;;;;;;;;;5017997;28;20747;-66
2021/06/25 02:28:48;;;;;;;2.83;1.43;;;;;;;;;;5018696;28;20506;-65
2021/06/25 02:31:14;;;;;;;2.80;1.13;;;;;;;;;;5017986;28;20432;-65
2021/06/25 02:33:40;;;;;;;1.40;1.00;;;;;;;;;;5016450;28;20431;-67
2021/06/25 02:36:06;;;;;;;6.10;1.00;;;;;;;;;;5016333;28;20403;-67
2021/06/25 02:38:32;;;;;;;1.73;1.10;;;;;;;;;;5014945;28;20503;-67
2021/06/25 02:40:58;;;;;;;1.73;1.10;;;;;;;;;;5015762;28;20772;-67
2021/06/25 02:43:24;;;;;;;2.10;1.40;;;;;;;;;;5015135;28;20428;-67
2021/06/25 02:45:51;;;;;;;1.70;1.10;;;;;;;;;;5015886;28;20415;-67
2021/06/25 02:48:17;;;;;;;1.80;1.23;;;;;;;;;;5014617;28;20447;-67
2021/06/25 02:50:43;;;;;;;2.00;1.10;;;;;;;;;;5016297;28;20428;-67
2021/06/25 02:53:09;;;;;;;1.73;1.10;;;;;;;;;;5012974;28;20966;-67
2021/06/25 02:55:35;;;;;;;2.10;1.17;;;;;;;;;;5015584;28;20423;-67
2021/06/25 02:58:01;;;;;;;2.60;1.30;;;;;;;;;;5015114;28;20428;-67
2021/06/25 03:00:27;;;;;;;1.70;1.13;;;;;;;;;;5015457;28;20832;-67
2021/06/25 03:02:53;;;;;;;1.70;1.00;;;;;;;;;;5014231;28;20428;-67
2021/06/25 03:05:20;;;;;;;1.50;1.00;;;;;;;;;;5014278;28;20861;-67
2021/06/25 03:07:46;;;;;;;1.90;1.10;;;;;;;;;;5014834;28;20466;-66
2021/06/25 03:10:13;;;;;;;3.20;1.30;;;;;;;;;;5014355;28;20423;-67
2021/06/25 03:12:39;;;;;;;1.60;1.30;;;;;;;;;;5014737;28;20495;-67
2021/06/25 03:15:06;;;;;;;2.23;1.50;;;;;;;;;;5015053;28;20411;-66
2021/06/25 03:17:32;;;;;;;1.90;1.20;;;;;;;;;;5013856;28;20428;-67
2021/06/25 03:19:58;;;;;;;3.00;1.37;;;;;;;;;;5014185;28;20491;-67
2021/06/25 03:22:24;;;;;;;2.47;1.20;;;;;;;;;;5012089;28;20431;-66
2021/06/25 03:24:50;;;;;;;7.10;1.43;;;;;;;;;;5014436;28;20423;-66
2021/06/25 03:27:16;;;;;;;1.90;1.37;;;;;;;;;;5011437;28;20630;-66
2021/06/25 03:29:42;;;;;;;2.50;1.10;;;;;;;;;;5013026;28;20436;-66
2021/06/25 03:32:08;;;;;;;2.00;1.40;;;;;;;;;;4999760;28;20423;-66
2021/06/25 03:34:34;;;;;;;1.83;1.23;;;;;;;;;;5014421;28;20771;-66
2021/06/25 03:37:00;;;;;;;2.53;1.53;;;;;;;;;;5013441;28;20466;-67
2021/06/25 03:39:26;;;;;;;2.43;1.00;;;;;;;;;;5013926;28;20482;-67
2021/06/25 03:41:52;;;;;;;2.20;1.50;;;;;;;;;;5011932;28;20482;-67
2021/06/25 03:44:18;;;;;;;1.77;1.40;;;;;;;;;;5012493;28;20415;-67
2021/06/25 03:46:44;;;;;;;1.80;1.10;;;;;;;;;;5013014;28;20437;-67
2021/06/25 03:49:10;;;;;;;1.73;1.30;;;;;;;;;;5013778;28;20454;-67
2021/06/25 03:51:37;;;;;;;2.23;1.67;;;;;;;;;;5012924;28;20458;-67
2021/06/25 03:54:03;;;;;;;2.47;1.40;;;;;;;;;;5012835;28;20442;-66
2021/06/25 03:56:29;;;;;;;1.90;1.37;;;;;;;;;;5013916;28;20499;-67
2021/06/25 03:58:55;;;;;;;2.00;1.40;;;;;;;;;;5012364;28;20471;-67
2021/06/25 04:01:22;;;;;;;2.43;1.43;;;;;;;;;;5013204;28;20491;-67
2021/06/25 04:03:48;;;;;;;2.17;1.30;;;;;;;;;;5012018;28;20432;-67
2021/06/25 04:06:14;;;;;;;2.80;1.03;;;;;;;;;;5014152;28;20407;-67
2021/06/25 04:08:40;;;;;;;2.30;1.47;;;;;;;;;;5012855;28;20459;-67
2021/06/25 04:11:06;;;;;;;3.07;1.27;;;;;;;;;;5002130;28;20454;-67
2021/06/25 04:13:33;;;;;;;1.73;1.30;;;;;;;;;;5007654;28;20432;-67
2021/06/25 04:15:59;;;;;;;1.93;1.40;;;;;;;;;;5014052;28;20418;-67
2021/06/25 04:18:26;;;;;;;2.20;1.53;;;;;;;;;;5011234;28;20501;-67
2021/06/25 04:20:52;;;;;;;2.53;1.60;;;;;;;;;;5012314;28;20805;-65
2021/06/25 04:23:18;;;;;;;2.43;1.70;;;;;;;;;;5010937;28;20435;-66
2021/06/25 04:25:44;;;;;;;2.60;2.27;;;;;;;;;;5009906;28;20435;-67
2021/06/25 04:28:11;;;;;;;4.57;2.03;;;;;;;;;;5012162;28;20470;-65
2021/06/25 04:30:40;;;;;;;2.27;1.53;;;;;;;;;;5013182;28;20415;-65
2021/06/25 04:33:08;;;;;;;1.80;1.23;;;;;;;;;;5012595;28;20443;-71
2021/06/25 04:35:34;;;;;;;1.80;1.30;;;;;;;;;;5013743;28;20443;-72
2021/06/25 04:38:03;;;;;;;2.60;1.57;;;;;;;;;;5027698;28;20432;-71
2021/06/25 04:40:32;;;;;;;2.87;2.07;;;;;;;;;;5020014;28;20451;-69
2021/06/25 04:42:59;;;;;;;3.27;2.00;;;;;;;;;;5015035;28;20769;-71
2021/06/25 04:45:25;;;;;;;3.13;1.87;;;;;;;;;;4997394;28;20408;-71
2021/06/25 04:47:51;;;;;;;2.70;1.40;;;;;;;;;;5014962;28;20763;-75
2021/06/25 04:50:17;;;;;;;1.90;1.30;;;;;;;;;;5018010;28;20503;-73
2021/06/25 04:52:43;;;;;;;2.90;2.00;;;;;;;;;;5016022;28;20486;-69
2021/06/25 04:55:10;;;;;;;2.00;1.37;;;;;;;;;;5016851;28;20430;-68
2021/06/25 04:57:39;;;;;;;2.07;1.33;;;;;;;;;;5015202;28;20897;-66
2021/06/25 05:00:07;;;;;;;2.10;1.47;;;;;;;;;;5017721;28;20478;-66
2021/06/25 05:02:33;;;;;;;2.00;1.30;;;;;;;;;;5017142;28;20451;-66
2021/06/25 05:04:59;;;;;;;2.00;1.40;;;;;;;;;;5018163;28;20802;-66
2021/06/25 05:07:25;;;;;;;2.57;1.40;;;;;;;;;;5016517;28;20415;-66
2021/06/25 05:09:51;;;;;;;3.30;1.27;;;;;;;;;;5017240;28;20431;-70
2021/06/25 05:12:17;;;;;;;1.80;1.33;;;;;;;;;;5016680;28;20797;-71
2021/06/25 05:14:43;;;;;;;3.53;1.60;;;;;;;;;;5018233;28;20411;-70
2021/06/25 05:17:09;;;;;;;3.13;1.50;;;;;;;;;;5017526;28;20416;-70
2021/06/25 05:19:35;;;;;;;2.53;1.67;;;;;;;;;;4998469;28;20472;-71
2021/06/25 05:22:01;;;;;;;3.00;1.50;;;;;;;;;;5017751;28;20410;-70
2021/06/25 05:24:27;;;;;;;2.20;1.50;;;;;;;;;;5017338;28;20472;-70
2021/06/25 05:26:53;;;;;;;1.80;1.20;;;;;;;;;;5017075;28;20502;-70
2021/06/25 05:29:19;;;;;;;4.30;1.57;;;;;;;;;;5012627;28;20460;-67
2021/06/25 05:31:45;;;;;;;2.23;1.50;;;;;;;;;;5014392;28;20467;-67
2021/06/25 05:34:11;;;;;;;2.30;1.60;;;;;;;;;;5014295;28;20920;-67
2021/06/25 05:36:37;;;;;;;2.27;1.43;;;;;;;;;;5013166;28;20588;-71
2021/06/25 05:39:03;;;;;;;2.80;1.10;;;;;;;;;;5013455;28;21027;-70
2021/06/25 05:41:30;;;;;;;2.63;1.27;;;;;;;;;;5014810;28;20431;-69
2021/06/25 05:43:56;;;;;;;3.90;1.40;;;;;;;;;;5013514;28;20431;-69
2021/06/25 05:46:22;;;;;;;1.67;1.23;;;;;;;;;;5015648;28;20404;-68
2021/06/25 05:48:48;;;;;;;2.10;1.13;;;;;;;;;;5014147;28;20447;-69
2021/06/25 05:51:14;;;;;;;4.50;2.20;;;;;;;;;;5015692;28;20408;-69
2021/06/25 05:53:40;;;;;;;4.37;2.00;;;;;;;;;;5012843;28;20442;-69
2021/06/25 05:56:07;;;;;;;3.00;1.67;;;;;;;;;;5014213;28;20419;-70
2021/06/25 05:58:33;;;;;;;2.10;1.60;;;;;;;;;;5014417;28;21006;-67
2021/06/25 06:00:59;;;;;;;1.70;1.20;;;;;;;;;;5015128;28;20403;-67
2021/06/25 06:03:25;;;;;;;1.60;1.10;;;;;;;;;;5014782;28;21035;-71
2021/06/25 06:05:51;;;;;;;2.47;1.77;;;;;;;;;;5016178;28;20427;-69
2021/06/25 06:08:17;;;;;;;2.60;1.30;;;;;;;;;;5012581;28;20452;-68
2021/06/25 06:10:43;;;;;;;2.30;1.60;;;;;;;;;;5014870;28;20416;-68
2021/06/25 06:13:09;;;;;;;4.00;1.37;;;;;;;;;;5013798;28;20542;-69
2021/06/25 06:15:35;;;;;;;3.10;1.43;;;;;;;;;;5013723;28;20904;-69
2021/06/25 06:18:03;;;;;;;2.10;1.60;;;;;;;;;;5013114;28;20448;-69
2021/06/25 06:20:29;;;;;;;4.33;2.10;;;;;;;;;;5006338;28;20452;-68
2021/06/25 06:36:11;;;;;;;2.30;1.60;;;;;;;;;;5014850;28;20400;-67
2021/06/25 06:38:37;;;;;;;2.80;1.90;;;;;;;;;;5013098;28;20448;-69
2021/06/25 06:41:03;;;;;;;3.57;1.90;;;;;;;;;;5014335;28;20917;-70
2021/06/25 06:43:29;;;;;;;2.97;2.20;;;;;;;;;;5013050;28;20430;-70
2021/06/25 06:45:55;;;;;;;4.10;2.33;;;;;;;;;;5014519;28;20404;-65
2021/06/25 06:48:21;;;;;;;2.47;2.00;;;;;;;;;;5011729;28;20444;-66
2021/06/25 06:50:47;;;;;;;3.07;2.27;;;;;;;;;;5013708;28;20897;-65
2021/06/25 06:53:13;;;;;;;2.73;2.20;;;;;;;;;;5010580;28;20424;-68
2021/06/25 06:55:43;;;;;;;3.80;2.53;;;;;;;;;;5014547;28;20428;-67
2021/06/25 06:58:10;;;;;;;3.80;2.77;;;;;;;;;;5013053;28;20452;-70
2021/06/25 07:00:36;;;;;;;3.07;2.40;;;;;;;;;;5013490;28;20463;-69
2021/06/25 07:03:02;;;;;;;3.10;2.10;;;;;;;;;;5012290;28;20482;-68
2021/06/25 07:05:28;;;;;;;3.07;2.07;;;;;;;;;;5012563;28;20928;-67
2021/06/25 07:07:54;;;;;;;4.00;2.90;;;;;;;;;;5014080;28;20923;-65
2021/06/25 07:10:20;;;;;;;3.20;2.50;;;;;;;;;;5012710;28;20451;-68
2021/06/25 07:12:46;;;;;;;3.50;2.40;;;;;;;;;;5014182;28;20400;-66
2021/06/25 07:15:12;;;;;;;3.43;2.73;;;;;;;;;;5011980;28;20420;-66
2021/06/25 07:17:38;;;;;;;3.57;2.70;;;;;;;;;;5013744;28;20420;-65
2021/06/25 07:20:05;;;;;;;3.67;2.63;;;;;;;;;;5012899;28;21025;-66
2021/06/25 07:22:31;;;;;;;4.13;2.83;;;;;;;;;;5014629;28;20446;-66
2021/06/25 07:24:57;;;;;;;5.33;2.90;;;;;;;;;;5009671;28;20946;-65
2021/06/25 07:27:24;;;;;;;4.00;3.03;;;;;;;;;;5011841;28;20427;-69
2021/06/25 07:29:50;;;;;;;3.17;2.47;;;;;;;;;;5012404;28;20467;-68
2021/06/25 07:32:16;;;;;;;3.10;2.40;;;;;;;;;;5012303;28;20431;-68
2021/06/25 07:34:42;;;;;;;4.80;2.63;;;;;;;;;;5013797;28;20487;-66
2021/06/25 07:37:08;;;;;;;4.40;2.70;;;;;;;;;;5011890;28;20462;-70
2021/06/25 07:39:34;;;;;;;3.70;2.70;;;;;;;;;;5013342;28;20467;-69
2021/06/25 07:42:00;;;;;;;3.57;2.60;;;;;;;;;;5012273;28;20500;-69
2021/06/25 07:44:26;;;;;;;3.30;2.83;;;;;;;;;;5013138;28;20452;-68
2021/06/25 07:46:52;;;;;;;3.90;2.90;;;;;;;;;;5012250;28;20466;-70
2021/06/25 07:49:18;;;;;;;4.20;3.00;;;;;;;;;;5012289;28;20920;-68
2021/06/25 07:51:44;;;;;;;3.60;2.53;;;;;;;;;;5010998;28;20430;-68
2021/06/25 07:54:10;;;;;;;4.50;2.60;;;;;;;;;;5003314;28;20454;-69
2021/06/25 07:56:36;;;;;;;4.33;3.20;;;;;;;;;;5010892;28;20440;-69
2021/06/25 07:59:02;;;;;;;3.90;2.80;;;;;;;;;;5010849;28;20470;-67
2021/06/25 08:01:28;;;;;;;4.30;3.47;;;;;;;;;;5011776;28;20446;-67
2021/06/25 08:03:54;;;;;;;3.37;2.47;;;;;;;;;;5012269;28;20428;-67
2021/06/25 08:06:20;;;;;;;3.80;2.23;;;;;;;;;;5010862;28;20416;-67
2021/06/25 08:08:47;;;;;;;3.37;2.73;;;;;;;;;;5011465;28;20458;-69
2021/06/25 08:11:13;;;;;;;4.33;2.13;;;;;;;;;;5012560;28;20415;-66
2021/06/25 08:13:39;;;;;;;3.40;2.20;;;;;;;;;;5010793;28;20428;-67
2021/06/25 08:16:05;;;;;;;4.90;2.10;;;;;;;;;;5012304;28;20524;-68
2021/06/25 08:18:31;;;;;;;3.23;2.27;;;;;;;;;;5015873;28;20471;-68
2021/06/25 08:20:57;;;;;;;2.40;1.80;;;;;;;;;;5017343;28;20486;-69
2021/06/25 08:23:23;;;;;;;5.17;2.13;;;;;;;;;;5013848;28;20510;-68
2021/06/25 08:25:49;;;;;;;3.00;2.23;;;;;;;;;;5007556;28;20831;-67
2021/06/25 08:28:15;;;;;;;3.10;1.47;;;;;;;;;;5029387;28;20448;-66
2021/06/25 08:30:41;;;;;;;2.23;1.50;;;;;;;;;;5011756;28;20419;-70
2021/06/25 08:33:08;;;;;;;2.27;1.57;;;;;;;;;;5015969;28;20427;-69
2021/06/25 08:35:34;;;;;;;2.10;1.30;;;;;;;;;;5016312;28;20399;-69
2021/06/25 08:38:00;;;;;;;2.30;1.60;;;;;;;;;;5015753;28;20446;-67
2021/06/25 08:40:26;;;;;;;2.17;1.53;;;;;;;;;;5015117;28;20530;-66
2021/06/25 08:42:52;;;;;;;2.50;1.60;;;;;;;;;;5016300;28;20793;-67
2021/06/25 08:45:19;;;;;;;2.00;1.40;;;;;;;;;;5016345;28;20407;-66
2021/06/25 08:47:51;;;;;;;2.30;1.30;;;;;;;;;;5016118;28;20434;-68
2021/06/25 08:50:19;;;;;;;1.87;1.40;;;;;;;;;;5016854;28;20900;-67
2021/06/25 08:52:46;;;;;;;2.20;1.40;;;;;;;;;;5015789;28;20525;-67
2021/06/25 08:55:12;;;;;;;1.70;0.90;;;;;;;;;;5016419;28;20407;-68
2021/06/25 08:57:38;;;;;;;2.43;1.30;;;;;;;;;;5011933;28;20428;-69
2021/06/25 09:00:05;;;;;;;5.50;1.30;;;;;;;;;;5016392;28;20474;-68
2021/06/25 09:02:33;;;;;;;1.57;1.10;;;;;;;;;;5014434;28;20442;-67
2021/06/25 09:04:59;;;;;;;1.50;0.90;;;;;;;;;;5016664;28;20407;-68
2021/06/25 09:07:41;;;;;;;1.97;1.10;;;;;;;;;;5015635;28;20418;-68
2021/06/25 09:10:07;;;;;;;1.67;1.00;;;;;;;;;;5015669;28;20959;-69
2021/06/25 09:12:33;;;;;;;1.70;0.80;;;;;;;;;;5013708;28;20423;-68
2021/06/25 09:15:17;;;;;;;2.53;1.50;;;;;;;;;;5016025;28;20490;-68
2021/06/25 09:17:53;;;;;;;1.70;0.97;;;;;;;;;;5015289;28;20435;-71
2021/06/25 09:20:33;;;;;;;1.63;1.10;;;;;;;;;;5015255;28;20476;-67
2021/06/25 09:22:59;;;;;;;2.83;1.10;;;;;;;;;;5014962;28;20514;-67
2021/06/25 09:25:25;;;;;;;1.77;0.90;;;;;;;;;;5016273;28;20935;-68
2021/06/25 09:27:56;;;;;;;2.00;1.30;;;;;;;;;;5014251;28;20437;-67
2021/06/25 09:30:23;;;;;;;2.37;1.20;;;;;;;;;;5014063;28;20420;-65
2021/06/25 09:32:49;;;;;;;1.87;1.20;;;;;;;;;;5013568;28;20423;-64
2021/06/25 09:35:23;;;;;;;1.70;1.07;;;;;;;;;;5015109;28;20436;-65
2021/06/25 09:37:50;;;;;;;2.23;1.37;;;;;;;;;;5006704;28;20444;-67
2021/06/25 09:40:18;;;;;;;3.30;1.20;;;;;;;;;;5014998;28;20444;-63
2021/06/25 09:42:45;;;;;;;1.80;1.10;;;;;;;;;;5010399;28;20526;-68
2021/06/25 09:45:14;;;;;;;4.00;1.07;;;;;;;;;;5005341;28;20535;-67
2021/06/25 09:47:52;;;;;;;1.70;1.00;;;;;;;;;;4999683;28;20959;-67
2021/06/25 09:50:22;;;;;;;1.57;1.00;;;;;;;;;;5011936;28;20824;-64
2021/06/25 09:52:51;;;;;;;1.80;1.30;;;;;;;;;;5013376;28;20430;-68
2021/06/25 09:55:28;;;;;;;2.43;1.20;;;;;;;;;;5015823;28;20411;-67
2021/06/25 10:03:48;;;;;;;1.83;1.10;;;;;;;;;;5010487;28;20516;-68
2021/06/25 10:06:16;;;;;;;1.87;1.10;;;;;;;;;;5013877;28;20446;-67
2021/06/25 10:08:44;;;;;;;1.80;1.10;;;;;;;;;;5013692;28;20520;-68
2021/06/25 10:11:10;;;;;;;4.83;1.40;;;;;;;;;;5000103;28;20466;-68
2021/06/25 10:13:37;;;;;;;2.50;1.00;;;;;;;;;;5013734;28;20415;-67
2021/06/25 10:16:04;;;;;;;3.33;1.50;;;;;;;;;;5014331;28;20478;-68
2021/06/25 10:18:36;;;;;;;2.17;1.30;;;;;;;;;;5011861;28;20528;-66
2021/06/25 10:21:02;;;;;;;2.77;1.60;;;;;;;;;;4995733;28;20409;-63
2021/06/25 10:23:29;;;;;;;4.67;1.50;;;;;;;;;;5004522;28;21030;-63
2021/06/25 10:25:55;;;;;;;2.23;1.20;;;;;;;;;;5014431;28;20413;-62
2021/06/25 10:28:22;;;;;;;1.83;1.10;;;;;;;;;;5013554;28;20447;-64
2021/06/25 10:30:48;;;;;;;1.90;1.40;;;;;;;;;;5015008;28;20801;-65
2021/06/25 10:33:14;;;;;;;1.80;1.10;;;;;;;;;;5013855;28;20427;-65
2021/06/25 10:35:42;;;;;;;2.93;1.30;;;;;;;;;;5008867;28;20481;-65
2021/06/25 10:38:08;;;;;;;2.10;1.27;;;;;;;;;;4998446;28;20435;-64
2021/06/25 10:40:34;;;;;;;2.13;1.47;;;;;;;;;;4995049;28;20452;-64
2021/06/25 10:43:02;;;;;;;3.40;1.37;;;;;;;;;;5008889;28;20435;-64
2021/06/25 10:45:42;;;;;;;2.00;1.33;;;;;;;;;;5012087;28;20427;-64
2021/06/25 10:48:08;;;;;;;3.90;1.70;;;;;;;;;;5011612;28;20431;-64
2021/06/25 10:50:34;;;;;;;2.63;1.60;;;;;;;;;;5013238;28;20434;-64
2021/06/25 10:53:06;;;;;;;2.70;1.60;;;;;;;;;;5010847;28;20431;-66
2021/06/25 10:55:32;;;;;;;2.23;1.50;;;;;;;;;;5013207;28;20544;-67
2021/06/25 10:57:58;;;;;;;2.10;1.37;;;;;;;;;;5008740;28;20464;-69
2021/06/25 11:00:51;;;;;;;3.73;1.40;;;;;;;;;;5012922;28;20458;-66
2021/06/25 11:03:36;;;;;;;2.50;1.60;;;;;;;;;;4999898;28;20838;-68
2021/06/25 11:06:05;;;;;;;2.33;1.63;;;;;;;;;;5009838;28;20773;-71
2021/06/25 11:08:31;;;;;;;2.70;2.10;;;;;;;;;;5011979;28;20443;-71
2021/06/25 11:10:58;;;;;;;4.00;1.50;;;;;;;;;;5012995;28;20538;-70
2021/06/25 11:13:25;;;;;;;2.10;1.60;;;;;;;;;;5012794;28;20424;-71
2021/06/25 11:15:52;;;;;;;2.50;1.60;;;;;;;;;;5013028;28;20407;-67
2021/06/25 11:18:25;;;;;;;2.20;1.50;;;;;;;;;;5011708;28;20477;-65
2021/06/25 11:21:02;;;;;;;3.80;1.97;;;;;;;;;;5013574;28;20498;-66
2021/06/25 11:23:29;;;;;;;2.00;1.50;;;;;;;;;;5007217;28;20788;-68
2021/06/25 11:26:03;;;;;;;2.63;1.60;;;;;;;;;;5013881;28;20502;-69
2021/06/25 11:28:32;;;;;;;2.00;1.20;;;;;;;;;;5012198;28;20444;-68
2021/06/25 11:31:01;;;;;;;2.17;1.20;;;;;;;;;;5012519;28;20419;-67
2021/06/25 11:33:29;;;;;;;2.30;1.53;;;;;;;;;;5009338;28;20987;-67
2021/06/25 11:35:55;;;;;;;1.87;1.10;;;;;;;;;;5012080;28;20443;-67
2021/06/25 11:38:52;;;;;;;2.00;1.40;;;;;;;;;;5010928;28;20454;-69
2021/06/25 11:41:18;;;;;;;1.90;1.10;;;;;;;;;;5013447;28;20396;-69
2021/06/25 11:43:47;;;;;;;1.83;1.27;;;;;;;;;;5011656;28;20462;-68
2021/06/25 11:46:15;;;;;;;1.90;1.20;;;;;;;;;;5013107;28;20480;-67
2021/06/25 11:48:41;;;;;;;1.93;1.10;;;;;;;;;;5011688;28;20523;-68
2021/06/25 11:51:07;;;;;;;2.57;1.10;;;;;;;;;;5010792;28;20411;-68
2021/06/25 11:53:34;;;;;;;1.50;0.90;;;;;;;;;;5011759;28;20420;-68
2021/06/25 11:56:00;;;;;;;1.73;1.20;;;;;;;;;;5012851;28;20396;-68
2021/06/25 11:58:27;;;;;;;1.80;1.20;;;;;;;;;;5011693;28;20541;-68
2021/06/25 12:01:03;;;;;;;2.27;1.50;;;;;;;;;;5012759;28;20455;-68
2021/06/25 12:03:42;;;;;;;1.90;1.10;;;;;;;;;;5012218;28;20440;-68
2021/06/25 12:06:08;;;;;;;2.17;1.10;;;;;;;;;;5012930;28;20400;-68
2021/06/25 12:08:51;;;;;;;1.70;0.87;;;;;;;;;;5011271;28;20967;-68
2021/06/25 12:11:17;;;;;;;1.60;1.00;;;;;;;;;;5013133;28;20450;-68
2021/06/25 12:13:43;;;;;;;1.77;1.00;;;;;;;;;;5012004;28;20427;-68
2021/06/25 12:16:10;;;;;;;1.90;0.90;;;;;;;;;;5013346;28;21130;-68
2021/06/25 12:18:42;;;;;;;2.37;0.93;;;;;;;;;;5011480;28;20470;-67
2021/06/25 12:21:08;;;;;;;1.60;0.90;;;;;;;;;;5012796;28;20454;-68
2021/06/25 12:23:34;;;;;;;1.90;1.00;;;;;;;;;;5011956;28;21012;-68
2021/06/25 12:26:08;;;;;;;1.50;0.90;;;;;;;;;;5012838;28;20935;-68
2021/06/25 12:28:34;;;;;;;2.33;0.90;;;;;;;;;;5002272;28;20464;-68
2021/06/25 12:31:01;;;;;;;2.23;1.37;;;;;;;;;;4993092;28;20435;-68
2021/06/25 12:33:30;;;;;;;1.90;1.27;;;;;;;;;;5001516;28;20416;-68
2021/06/25 12:35:57;;;;;;;1.70;0.90;;;;;;;;;;5012741;28;20950;-68
2021/06/25 12:38:25;;;;;;;4.37;2.80;;;;;;;;;;5011515;28;21021;-69
2021/06/25 12:40:53;;;;;;;1.60;0.97;;;;;;;;;;5012881;28;20920;-70
2021/06/25 12:43:29;;;;;;;1.73;1.10;;;;;;;;;;5010171;28;20426;-68
2021/06/25 12:45:58;;;;;;;2.00;1.40;;;;;;;;;;5013168;28;20460;-68
2021/06/25 12:48:26;;;;;;;2.40;1.50;;;;;;;;;;5007873;28;20440;-68
2021/06/25 12:51:12;;;;;;;1.60;1.00;;;;;;;;;;5008305;28;20522;-69
2021/06/25 12:53:40;;;;;;;2.43;1.07;;;;;;;;;;4996524;28;20458;-68
2021/06/25 12:56:11;;;;;;;2.00;1.20;;;;;;;;;;5012464;28;20404;-68
2021/06/25 12:58:38;;;;;;;2.23;1.00;;;;;;;;;;5010955;28;20451;-68
2021/06/25 13:01:05;;;;;;;1.50;0.87;;;;;;;;;;5005908;28;20424;-71
2021/06/25 13:03:32;;;;;;;1.80;1.13;;;;;;;;;;5009549;28;20435;-68
2021/06/25 13:05:58;;;;;;;1.80;1.10;;;;;;;;;;5016733;28;20438;-70
2021/06/25 13:08:28;;;;;;;8.40;1.20;;;;;;;;;;5014562;28;20445;-71
2021/06/25 13:10:58;;;;;;;1.50;0.90;;;;;;;;;;5015834;28;20478;-71
2021/06/25 13:13:25;;;;;;;1.70;1.00;;;;;;;;;;5014632;28;20859;-70
2021/06/25 13:15:52;;;;;;;1.90;1.00;;;;;;;;;;5014802;28;20743;-70
2021/06/25 13:18:20;;;;;;;1.90;1.00;;;;;;;;;;5012282;28;20463;-70
2021/06/25 13:21:05;;;;;;;1.87;0.93;;;;;;;;;;5015753;28;20447;-70
2021/06/25 13:23:31;;;;;;;1.80;1.00;;;;;;;;;;5014285;28;20410;-70
2021/06/25 13:26:10;;;;;;;2.10;0.80;;;;;;;;;;5013575;28;20435;-70
2021/06/25 13:28:36;;;;;;;1.90;1.20;;;;;;;;;;5012575;28;20822;-70
2021/06/25 13:31:11;;;;;;;1.70;1.00;;;;;;;;;;5015154;28;20909;-69
2021/06/25 13:33:41;;;;;;;2.20;1.40;;;;;;;;;;5014612;28;20442;-69
2021/06/25 13:36:08;;;;;;;1.87;1.17;;;;;;;;;;5015105;28;20455;-69
2021/06/25 13:38:34;;;;;;;1.87;1.10;;;;;;;;;;5014309;28;20456;-69
2021/06/25 13:41:02;;;;;;;5.63;1.20;;;;;;;;;;5015537;28;20836;-70
2021/06/25 13:43:28;;;;;;;3.97;1.07;;;;;;;;;;5013450;28;20916;-70
2021/06/25 13:46:08;;;;;;;1.90;1.13;;;;;;;;;;5015367;28;20403;-70
2021/06/25 13:48:34;;;;;;;1.80;1.10;;;;;;;;;;5012909;28;20542;-70
2021/06/25 13:51:02;;;;;;;1.93;1.37;;;;;;;;;;5006461;28;20473;-70
2021/06/25 13:53:33;;;;;;;2.00;1.20;;;;;;;;;;5013701;28;20495;-69
2021/06/25 13:56:00;;;;;;;2.00;1.30;;;;;;;;;;5014225;28;20442;-69
2021/06/25 13:58:26;;;;;;;2.87;1.30;;;;;;;;;;5014972;28;20427;-72
2021/06/25 14:01:15;;;;;;;1.90;1.10;;;;;;;;;;5014010;28;20460;-67
2021/06/25 14:03:41;;;;;;;1.90;1.30;;;;;;;;;;5003315;28;20459;-71
2021/06/25 14:06:08;;;;;;;3.40;1.13;;;;;;;;;;5015005;28;20442;-71
2021/06/25 14:08:44;;;;;;;2.20;1.10;;;;;;;;;;5014310;28;20446;-71
2021/06/25 14:11:13;;;;;;;1.70;1.00;;;;;;;;;;5004369;28;20415;-71
2021/06/25 14:13:41;;;;;;;2.00;1.33;;;;;;;;;;5015214;28;20438;-72
2021/06/25 14:16:17;;;;;;;2.10;1.13;;;;;;;;;;5015420;28;20808;-70
2021/06/25 14:18:44;;;;;;;1.90;1.10;;;;;;;;;;5014756;28;20448;-71
2021/06/25 14:21:10;;;;;;;2.20;1.07;;;;;;;;;;5014532;28;20412;-68
2021/06/25 14:23:36;;;;;;;1.60;1.10;;;;;;;;;;5013740;28;20416;-71
2021/06/25 14:26:05;;;;;;;1.57;0.87;;;;;;;;;;5014412;28;20415;-70
2021/06/25 14:28:32;;;;;;;1.53;0.80;;;;;;;;;;5016502;28;20437;-70
2021/06/25 14:30:58;;;;;;;4.80;1.00;;;;;;;;;;5012879;28;20407;-71
2021/06/25 14:33:25;;;;;;;1.50;0.70;;;;;;;;;;5016756;28;20962;-70
2021/06/25 14:35:51;;;;;;;1.50;0.70;;;;;;;;;;5014031;28;20462;-68
2021/06/25 14:38:18;;;;;;;1.40;0.67;;;;;;;;;;5014283;28;20431;-68
2021/06/25 14:40:44;;;;;;;1.80;0.87;;;;;;;;;;5012953;28;20530;-68
2021/06/25 14:43:10;;;;;;;1.80;0.90;;;;;;;;;;5012794;28;20416;-73
2021/06/25 14:45:36;;;;;;;1.80;1.00;;;;;;;;;;5013998;28;20450;-70
2021/06/25 14:48:02;;;;;;;1.70;0.90;;;;;;;;;;5015182;28;20424;-69
2021/06/25 14:50:28;;;;;;;1.57;0.83;;;;;;;;;;5015970;28;20507;-71
2021/06/25 14:52:54;;;;;;;3.70;0.80;;;;;;;;;;5017111;28;20427;-71
2021/06/25 14:55:21;;;;;;;1.70;0.90;;;;;;;;;;5014237;28;20783;-71
2021/06/25 14:57:47;;;;;;;1.60;0.80;;;;;;;;;;5014541;28;20411;-72
2021/06/25 15:00:13;;;;;;;1.70;0.83;;;;;;;;;;5012813;28;20945;-71
2021/06/25 15:02:39;;;;;;;1.83;0.80;;;;;;;;;;4996189;28;20499;-70
2021/06/25 15:05:06;;;;;;;1.40;0.60;;;;;;;;;;5005018;28;20447;-71